Time;durP1;ratioP1;P1;durP2;ratioP2;P2;SDS_P1;SDS_P2;PMS_P1;PMS_P2;Temp;Humidity;BMP_temperature;BMP_pressure;BME280_temperature;BME280_humidity;BME280_pressure;Samples;Min_cycle;Max_cycle;Signal;HPM_P1;HPM_P2
2022/05/04 00:01:00;;;;;;;9.10;5.22;;;;;;;;;;4946529;29;20044;-77
2022/05/04 00:03:45;;;;;;;6.93;4.63;;;;;;;;;;4946445;29;20399;-78
2022/05/04 00:06:31;;;;;;;7.70;5.50;;;;;;;;;;4946065;29;20047;-78
2022/05/04 00:09:16;;;;;;;7.50;4.63;;;;;;;;;;4946283;29;20047;-77
2022/05/04 00:12:02;;;;;;;7.95;4.72;;;;;;;;;;4946020;29;20047;-77
2022/05/04 00:14:47;;;;;;;7.00;4.68;;;;;;;;;;4946314;29;20047;-77
2022/05/04 00:17:33;;;;;;;7.30;4.68;;;;;;;;;;4946296;29;20482;-78
2022/05/04 00:20:19;;;;;;;8.15;5.38;;;;;;;;;;4946036;29;20051;-77
2022/05/04 00:23:04;;;;;;;5.85;4.55;;;;;;;;;;4946155;29;20055;-78
2022/05/04 00:25:50;;;;;;;8.55;4.93;;;;;;;;;;4939598;29;20487;-78
2022/05/04 00:28:36;;;;;;;9.70;6.07;;;;;;;;;;4945845;29;20479;-78
2022/05/04 00:31:21;;;;;;;10.60;5.70;;;;;;;;;;4946549;29;20047;-78
2022/05/04 00:34:07;;;;;;;10.40;5.57;;;;;;;;;;4945610;29;20483;-78
2022/05/04 00:36:52;;;;;;;10.65;6.05;;;;;;;;;;4946175;29;20052;-77
2022/05/04 00:39:38;;;;;;;9.38;5.50;;;;;;;;;;4945528;29;20063;-78
2022/05/04 00:42:23;;;;;;;8.32;5.18;;;;;;;;;;4945982;29;20511;-77
2022/05/04 00:45:09;;;;;;;13.77;7.10;;;;;;;;;;4945753;29;20399;-78
2022/05/04 00:47:54;;;;;;;25.88;10.20;;;;;;;;;;4945419;29;20055;-77
2022/05/04 00:50:40;;;;;;;17.33;9.20;;;;;;;;;;4945990;29;20047;-78
2022/05/04 00:53:26;;;;;;;17.73;9.68;;;;;;;;;;4945254;29;20051;-78
2022/05/04 00:56:11;;;;;;;15.27;9.02;;;;;;;;;;4945899;29;20391;-77
2022/05/04 00:58:57;;;;;;;15.50;8.60;;;;;;;;;;4942697;29;20051;-78
2022/05/04 01:01:43;;;;;;;12.85;7.68;;;;;;;;;;4938608;29;20476;-78
2022/05/04 01:04:28;;;;;;;11.35;6.15;;;;;;;;;;4945808;29;20051;-79
2022/05/04 01:07:14;;;;;;;10.80;6.05;;;;;;;;;;4945500;29;20475;-78
2022/05/04 01:09:59;;;;;;;6.78;4.93;;;;;;;;;;4945235;29;20039;-76
2022/05/04 01:12:53;;;;;;;5.60;4.25;;;;;;;;;;4945335;29;20410;-79
2022/05/04 01:15:38;;;;;;;7.13;4.40;;;;;;;;;;4945018;29;20056;-77
2022/05/04 01:18:24;;;;;;;9.85;4.88;;;;;;;;;;4945107;29;20052;-78
2022/05/04 01:21:09;;;;;;;8.63;5.47;;;;;;;;;;4939006;29;20044;-79
2022/05/04 01:23:56;;;;;;;7.03;5.30;;;;;;;;;;4945175;29;20052;-78
2022/05/04 01:26:42;;;;;;;9.15;5.40;;;;;;;;;;4945170;29;20055;-78
2022/05/04 01:29:27;;;;;;;12.38;7.07;;;;;;;;;;4946438;29;20051;-78
2022/05/04 01:32:13;;;;;;;11.02;5.82;;;;;;;;;;4945780;29;20056;-77
2022/05/04 01:34:59;;;;;;;9.57;5.90;;;;;;;;;;4945345;29;20052;-77
2022/05/04 01:37:44;;;;;;;11.38;6.03;;;;;;;;;;4944712;29;20055;-77
2022/05/04 01:40:30;;;;;;;9.77;6.00;;;;;;;;;;4944557;29;20047;-78
2022/05/04 01:43:15;;;;;;;9.60;5.47;;;;;;;;;;4944569;29;20393;-77
2022/05/04 01:46:01;;;;;;;9.70;5.97;;;;;;;;;;4944610;29;20047;-77
2022/05/04 01:48:48;;;;;;;10.13;5.85;;;;;;;;;;4944895;29;20048;-78
2022/05/04 01:51:33;;;;;;;12.05;7.13;;;;;;;;;;4944259;29;20431;-78
2022/05/04 01:54:19;;;;;;;13.07;7.35;;;;;;;;;;4944608;29;20051;-78
2022/05/04 01:57:04;;;;;;;13.38;7.38;;;;;;;;;;4944358;29;20044;-78
2022/05/04 01:59:49;;;;;;;11.20;7.03;;;;;;;;;;4938080;29;20048;-78
2022/05/04 02:02:36;;;;;;;12.27;6.85;;;;;;;;;;4944340;29;20056;-78
2022/05/04 02:05:21;;;;;;;9.25;5.88;;;;;;;;;;4937384;29;20047;-78
2022/05/04 02:08:07;;;;;;;10.52;5.78;;;;;;;;;;4944470;29;20047;-77
2022/05/04 02:10:52;;;;;;;8.55;5.43;;;;;;;;;;4937618;29;20047;-78
2022/05/04 02:13:38;;;;;;;10.30;5.30;;;;;;;;;;4944691;29;20051;-78
2022/05/04 02:16:23;;;;;;;13.88;5.47;;;;;;;;;;4944558;29;20476;-78
2022/05/04 02:19:09;;;;;;;8.73;5.40;;;;;;;;;;4943823;29;20059;-78
2022/05/04 02:21:54;;;;;;;6.78;4.90;;;;;;;;;;4943386;29;20527;-78
2022/05/04 02:24:39;;;;;;;8.05;4.40;;;;;;;;;;4943591;29;20063;-79
2022/05/04 02:27:24;;;;;;;6.78;4.85;;;;;;;;;;4944186;29;20403;-78
2022/05/04 02:30:13;;;;;;;9.07;4.43;;;;;;;;;;4944069;29;20048;-78
2022/05/04 02:32:59;;;;;;;9.45;4.90;;;;;;;;;;4943573;29;20503;-78
2022/05/04 02:38:48;;;;;;;8.27;5.47;;;;;;;;;;4936824;29;20044;-78
2022/05/04 02:41:33;;;;;;;11.43;7.88;;;;;;;;;;4944118;29;20043;-78
2022/05/04 02:44:19;;;;;;;11.77;8.43;;;;;;;;;;4943817;29;20051;-78
2022/05/04 02:47:05;;;;;;;11.05;7.68;;;;;;;;;;4936677;29;20044;-78
2022/05/04 02:49:50;;;;;;;9.40;6.32;;;;;;;;;;4943431;29;20047;-77
2022/05/04 02:52:35;;;;;;;12.27;6.90;;;;;;;;;;4943285;29;20044;-77
2022/05/04 02:55:20;;;;;;;10.77;6.47;;;;;;;;;;4943656;29;20471;-78
2022/05/04 02:58:06;;;;;;;10.77;7.15;;;;;;;;;;4942807;29;20052;-77
2022/05/04 03:00:51;;;;;;;12.52;6.65;;;;;;;;;;4936910;29;20051;-78
2022/05/04 03:03:37;;;;;;;14.10;6.50;;;;;;;;;;4943791;29;20051;-78
2022/05/04 03:06:22;;;;;;;10.45;5.97;;;;;;;;;;4942917;29;20043;-78
2022/05/04 03:09:10;;;;;;;11.15;6.90;;;;;;;;;;4943039;29;20047;-78
2022/05/04 03:11:55;;;;;;;10.70;6.65;;;;;;;;;;4943027;29;20056;-78
2022/05/04 03:14:40;;;;;;;11.25;6.07;;;;;;;;;;4942978;29;20052;-78
2022/05/04 03:17:26;;;;;;;9.52;6.45;;;;;;;;;;4942862;29;20048;-78
2022/05/04 03:20:12;;;;;;;9.27;5.32;;;;;;;;;;4943031;29;20475;-78
2022/05/04 03:22:57;;;;;;;5.63;4.43;;;;;;;;;;4942833;29;20056;-78
2022/05/04 03:25:42;;;;;;;8.00;4.30;;;;;;;;;;4943005;29;20395;-78
2022/05/04 03:28:27;;;;;;;7.25;5.35;;;;;;;;;;4942537;29;20048;-77
2022/05/04 03:31:13;;;;;;;10.85;5.40;;;;;;;;;;4937110;29;20053;-78
2022/05/04 03:33:58;;;;;;;8.48;5.60;;;;;;;;;;4942892;29;20052;-77
2022/05/04 03:36:44;;;;;;;9.63;5.03;;;;;;;;;;4942551;29;20048;-78
2022/05/04 03:39:30;;;;;;;6.65;4.88;;;;;;;;;;4936735;29;20051;-77
2022/05/04 03:42:15;;;;;;;8.23;4.80;;;;;;;;;;4942573;29;20468;-78
2022/05/04 03:45:01;;;;;;;9.27;5.07;;;;;;;;;;4936449;29;20044;-78
2022/05/04 03:47:45;;;;;;;10.82;5.72;;;;;;;;;;4943244;29;20403;-78
2022/05/04 03:50:31;;;;;;;9.95;6.47;;;;;;;;;;4942623;29;20391;-78
2022/05/04 03:53:16;;;;;;;37.03;21.20;;;;;;;;;;4921356;29;20051;-79
2022/05/04 03:56:03;;;;;;;24.80;15.50;;;;;;;;;;4940002;29;20495;-80
2022/05/04 03:58:48;;;;;;;20.52;10.27;;;;;;;;;;4940060;29;20052;-78
2022/05/04 04:01:33;;;;;;;18.33;9.75;;;;;;;;;;4936058;29;20403;-78
2022/05/04 04:04:19;;;;;;;20.80;9.02;;;;;;;;;;4942416;29;20434;-78
2022/05/04 04:07:04;;;;;;;17.80;9.32;;;;;;;;;;4942698;29;20073;-79
2022/05/04 04:09:50;;;;;;;25.27;9.93;;;;;;;;;;4942321;29;20052;-78
2022/05/04 04:12:36;;;;;;;19.02;9.40;;;;;;;;;;4942896;29;20052;-77
2022/05/04 04:15:21;;;;;;;35.88;14.63;;;;;;;;;;4942826;29;20044;-78
2022/05/04 04:18:07;;;;;;;28.10;11.52;;;;;;;;;;4942852;29;20043;-78
2022/05/04 04:23:58;;;;;;;;;;;;;;;;;;4922862;29;20048;-77
2022/05/04 04:26:43;;;;;;;15.57;7.80;;;;;;;;;;4923480;29;19915;-78
2022/05/04 04:29:28;;;;;;;19.67;8.68;;;;;;;;;;4922997;29;20052;-79
2022/05/04 04:32:14;;;;;;;15.82;7.55;;;;;;;;;;4923030;29;20048;-79
2022/05/04 04:34:59;;;;;;;22.73;9.77;;;;;;;;;;4923284;29;20052;-79
2022/05/04 04:37:45;;;;;;;25.60;11.13;;;;;;;;;;4923290;29;20048;-76
2022/05/04 04:40:30;;;;;;;31.60;10.65;;;;;;;;;;4923397;29;20048;-78
2022/05/04 04:43:16;;;;;;;18.52;8.30;;;;;;;;;;4909318;29;20048;-77
2022/05/04 04:46:01;;;;;;;19.95;9.13;;;;;;;;;;4926503;29;20052;-78
2022/05/04 04:48:47;;;;;;;14.40;8.10;;;;;;;;;;4926357;29;20047;-78
2022/05/04 04:51:33;;;;;;;15.10;8.15;;;;;;;;;;4943481;29;20048;-78
2022/05/04 04:54:18;;;;;;;12.30;6.47;;;;;;;;;;4921094;29;20048;-78
2022/05/04 04:57:04;;;;;;;14.88;7.72;;;;;;;;;;4922625;29;20044;-78
2022/05/04 04:59:49;;;;;;;11.30;7.60;;;;;;;;;;4927297;29;20048;-78
2022/05/04 05:02:35;;;;;;;22.33;8.15;;;;;;;;;;4934530;29;20044;-78
2022/05/04 05:05:20;;;;;;;11.80;8.52;;;;;;;;;;4915543;29;20060;-78
2022/05/04 05:08:05;;;;;;;5.32;3.15;;;;;;;;;;4920829;29;20043;-77
2022/05/04 05:10:51;;;;;;;6.10;3.88;;;;;;;;;;4927173;29;20052;-77
2022/05/04 05:16:06;;;;;;;9.20;4.88;;;;;;;;;;4927573;29;20056;-78
2022/05/04 05:16:42;;;;;;;9.93;4.18;;;;;;;;;;4927493;29;20051;-76
2022/05/04 05:19:28;;;;;;;9.38;4.63;;;;;;;;;;4920251;29;20416;-78
2022/05/04 05:22:13;;;;;;;8.68;4.40;;;;;;;;;;4924295;29;20053;-77
2022/05/04 05:24:59;;;;;;;6.50;3.70;;;;;;;;;;4918166;29;20127;-78
2022/05/04 05:27:44;;;;;;;9.88;4.20;;;;;;;;;;4930833;29;20048;-77
2022/05/04 05:30:30;;;;;;;8.65;4.45;;;;;;;;;;4933373;29;20048;-78
2022/05/04 05:33:16;;;;;;;12.05;5.03;;;;;;;;;;4929978;29;20056;-79
2022/05/04 05:36:01;;;;;;;8.73;5.15;;;;;;;;;;4915308;29;20052;-78
2022/05/04 05:38:47;;;;;;;11.45;5.97;;;;;;;;;;4910689;29;20052;-78
2022/05/04 05:41:32;;;;;;;11.55;6.22;;;;;;;;;;4925556;29;20056;-77
2022/05/04 05:44:18;;;;;;;9.25;5.47;;;;;;;;;;4919115;29;20056;-77
2022/05/04 05:47:04;;;;;;;8.82;4.70;;;;;;;;;;4925655;29;20052;-76
2022/05/04 05:49:50;;;;;;;12.05;5.47;;;;;;;;;;4925371;29;20056;-80
2022/05/04 05:52:36;;;;;;;10.77;3.90;;;;;;;;;;4930303;29;20044;-80
2022/05/04 05:55:21;;;;;;;5.78;4.10;;;;;;;;;;4928460;29;20437;-79
2022/05/04 05:58:09;;;;;;;6.35;3.55;;;;;;;;;;4912202;29;20476;-78
2022/05/04 06:00:54;;;;;;;6.10;3.55;;;;;;;;;;4927089;29;20056;-78
2022/05/04 06:03:40;;;;;;;11.13;4.97;;;;;;;;;;4944039;29;20055;-78
2022/05/04 06:06:25;;;;;;;15.88;6.65;;;;;;;;;;4930433;29;20399;-76
2022/05/04 06:09:11;;;;;;;8.00;4.75;;;;;;;;;;4937332;29;20048;-79
2022/05/04 06:11:56;;;;;;;9.60;4.80;;;;;;;;;;4925304;29;20052;-78
2022/05/04 06:14:42;;;;;;;7.95;4.53;;;;;;;;;;4923098;29;20468;-75
2022/05/04 06:17:27;;;;;;;11.23;4.90;;;;;;;;;;4924776;29;20415;-77
2022/05/04 06:20:13;;;;;;;6.70;4.97;;;;;;;;;;4918619;29;20482;-78
2022/05/04 06:22:58;;;;;;;8.80;5.18;;;;;;;;;;4924224;29;20048;-77
2022/05/04 06:25:45;;;;;;;10.82;5.72;;;;;;;;;;4923742;29;20396;-78
2022/05/04 06:28:30;;;;;;;11.50;5.75;;;;;;;;;;4924490;29;20051;-76
2022/05/04 06:34:18;;;;;;;9.90;5.47;;;;;;;;;;4924698;29;20052;-78
2022/05/04 06:37:03;;;;;;;13.48;6.40;;;;;;;;;;4923896;29;20048;-77
2022/05/04 06:39:49;;;;;;;10.02;5.75;;;;;;;;;;4924557;29;20052;-78
2022/05/04 06:42:34;;;;;;;11.02;6.18;;;;;;;;;;4924619;29;20408;-78
2022/05/04 06:45:20;;;;;;;10.10;6.13;;;;;;;;;;4929506;29;20048;-78
2022/05/04 06:48:06;;;;;;;8.82;5.80;;;;;;;;;;4940563;29;20485;-77
2022/05/04 06:50:51;;;;;;;6.90;5.20;;;;;;;;;;4942819;29;20048;-78
2022/05/04 06:53:36;;;;;;;8.27;6.15;;;;;;;;;;4943267;29;20048;-79
2022/05/04 06:56:21;;;;;;;10.10;5.40;;;;;;;;;;4943367;29;20497;-78
2022/05/04 06:59:07;;;;;;;10.40;5.43;;;;;;;;;;4939811;29;20048;-78
2022/05/04 07:01:53;;;;;;;8.60;5.22;;;;;;;;;;4944946;29;20399;-78
2022/05/04 07:04:38;;;;;;;9.68;5.97;;;;;;;;;;4929598;29;20055;-77
2022/05/04 07:07:23;;;;;;;14.30;5.97;;;;;;;;;;4942897;29;20479;-77
2022/05/04 07:10:08;;;;;;;8.68;5.20;;;;;;;;;;4936268;29;20044;-77
2022/05/04 07:12:54;;;;;;;13.77;5.20;;;;;;;;;;4943151;29;20052;-77
2022/05/04 07:15:39;;;;;;;9.05;5.13;;;;;;;;;;4942498;29;20052;-77
2022/05/04 07:18:25;;;;;;;8.68;5.75;;;;;;;;;;4943279;29;20055;-77
2022/05/04 07:21:10;;;;;;;6.80;4.47;;;;;;;;;;4936253;29;20051;-79
2022/05/04 07:23:56;;;;;;;7.45;4.45;;;;;;;;;;4942757;29;20047;-78
2022/05/04 07:26:41;;;;;;;7.72;4.53;;;;;;;;;;4942993;29;20055;-77
2022/05/04 07:29:27;;;;;;;11.02;4.15;;;;;;;;;;4942426;29;20052;-78
2022/05/04 07:32:13;;;;;;;8.35;4.28;;;;;;;;;;4943006;29;20471;-76
2022/05/04 07:34:59;;;;;;;8.85;4.80;;;;;;;;;;4943066;29;20048;-76
2022/05/04 07:37:44;;;;;;;7.13;4.55;;;;;;;;;;4942335;29;20399;-77
2022/05/04 07:43:33;;;;;;;7.50;4.22;;;;;;;;;;4929411;29;20048;-77
2022/05/04 07:46:19;;;;;;;8.05;4.43;;;;;;;;;;4923799;29;20056;-77
2022/05/04 07:49:05;;;;;;;8.88;4.40;;;;;;;;;;4923563;29;20056;-76
2022/05/04 07:51:51;;;;;;;8.32;4.22;;;;;;;;;;4923110;29;20052;-77
2022/05/04 07:54:36;;;;;;;7.80;4.88;;;;;;;;;;4923297;29;20048;-75
2022/05/04 07:57:22;;;;;;;14.10;5.20;;;;;;;;;;4923409;29;20407;-75
2022/05/04 08:06:15;;;;;;;8.73;4.13;;;;;;;;;;4923207;29;20048;-76
2022/05/04 08:09:02;;;;;;;8.15;5.43;;;;;;;;;;4923748;29;20047;-74
2022/05/04 08:11:48;;;;;;;10.50;5.20;;;;;;;;;;4923368;29;20052;-76
2022/05/04 08:14:33;;;;;;;15.73;4.93;;;;;;;;;;4937187;29;20051;-76
2022/05/04 08:17:20;;;;;;;11.48;5.65;;;;;;;;;;4942267;29;20055;-78
2022/05/04 08:20:05;;;;;;;7.72;4.55;;;;;;;;;;4944529;29;20051;-76
2022/05/04 08:22:50;;;;;;;6.53;3.92;;;;;;;;;;4946137;29;20051;-77
2022/05/04 08:25:35;;;;;;;8.10;4.05;;;;;;;;;;4945943;29;20055;-78
2022/05/04 08:28:21;;;;;;;10.70;4.90;;;;;;;;;;4945887;29;20060;-78
2022/05/04 08:31:07;;;;;;;16.30;4.22;;;;;;;;;;4946010;29;20048;-76
2022/05/04 08:33:52;;;;;;;8.27;3.78;;;;;;;;;;4944218;29;20048;-76
2022/05/04 08:36:38;;;;;;;158.00;99.18;;;;;;;;;;4945747;29;20056;-77
2022/05/04 08:39:24;;;;;;;20.75;12.77;;;;;;;;;;4945333;29;20052;-77
2022/05/04 08:42:09;;;;;;;17.58;9.65;;;;;;;;;;4945646;29;20051;-77
2022/05/04 08:44:57;;;;;;;49.45;36.53;;;;;;;;;;4945183;29;20064;-78
2022/05/04 08:47:44;;;;;;;10.70;5.57;;;;;;;;;;4945161;29;20055;-76
2022/05/04 08:50:29;;;;;;;8.00;3.40;;;;;;;;;;4939022;29;20047;-77
2022/05/04 08:53:16;;;;;;;5.25;3.38;;;;;;;;;;4944957;29;20491;-79
2022/05/04 08:56:01;;;;;;;5.78;3.13;;;;;;;;;;4945767;29;20047;-78
2022/05/04 08:58:47;;;;;;;6.93;2.88;;;;;;;;;;4943279;29;20060;-76
2022/05/04 09:01:42;;;;;;;7.78;2.83;;;;;;;;;;4945158;29;20056;-76
2022/05/04 09:04:29;;;;;;;;;;;;;;;;;;4945989;29;20052;-77
2022/05/04 09:07:25;;;;;;;5.38;2.33;;;;;;;;;;4944792;29;19923;-77
2022/05/04 09:10:17;;;;;;;3.88;2.13;;;;;;;;;;4945222;29;20056;-76
2022/05/04 09:13:04;;;;;;;5.32;2.45;;;;;;;;;;4945325;29;20055;-77
2022/05/04 09:15:51;;;;;;;7.63;2.47;;;;;;;;;;4945138;29;20043;-76
2022/05/04 09:18:36;;;;;;;6.70;2.40;;;;;;;;;;4945236;29;20051;-76
2022/05/04 09:21:22;;;;;;;5.28;2.28;;;;;;;;;;4945129;29;20371;-77
2022/05/04 09:24:08;;;;;;;3.92;2.17;;;;;;;;;;4945370;29;20047;-78
2022/05/04 09:26:56;;;;;;;3.53;2.05;;;;;;;;;;4945082;29;20048;-77
2022/05/04 09:29:42;;;;;;;5.63;2.33;;;;;;;;;;4944182;29;20051;-76
2022/05/04 09:32:30;;;;;;;6.32;2.40;;;;;;;;;;4945418;29;20052;-78
2022/05/04 09:35:17;;;;;;;4.93;2.22;;;;;;;;;;4944425;29;20047;-77
2022/05/04 09:47:29;;;;;;;7.20;2.50;;;;;;;;;;4929397;29;20396;-77
2022/05/04 09:50:17;;;;;;;4.90;2.28;;;;;;;;;;4906211;29;20056;-77
2022/05/04 09:53:02;;;;;;;6.38;2.28;;;;;;;;;;4906470;29;20056;-77
2022/05/04 09:55:48;;;;;;;2.72;2.10;;;;;;;;;;4906723;29;20048;-79
2022/05/04 09:58:33;;;;;;;4.93;2.20;;;;;;;;;;4904816;29;20052;-77
2022/05/04 10:01:18;;;;;;;6.60;2.50;;;;;;;;;;4906441;29;20056;-78
2022/05/04 10:04:04;;;;;;;3.35;2.35;;;;;;;;;;4910399;29;20048;-78
2022/05/04 10:06:51;;;;;;;4.15;2.00;;;;;;;;;;4935687;29;20048;-76
2022/05/04 10:09:36;;;;;;;5.35;2.38;;;;;;;;;;4939448;29;20048;-76
2022/05/04 10:12:23;;;;;;;5.55;2.20;;;;;;;;;;4937925;29;20403;-76
2022/05/04 10:15:16;;;;;;;3.30;2.10;;;;;;;;;;4944370;29;20052;-78
2022/05/04 10:18:18;;;;;;;8.20;2.38;;;;;;;;;;4943449;29;20411;-77
2022/05/04 10:21:12;;;;;;;5.00;2.33;;;;;;;;;;4944207;29;20399;-77
2022/05/04 10:24:01;;;;;;;4.90;2.15;;;;;;;;;;4941740;29;20074;-76
2022/05/04 10:26:47;;;;;;;2.50;2.10;;;;;;;;;;4937894;29;20040;-77
2022/05/04 10:32:43;;;;;;;4.97;2.30;;;;;;;;;;4931956;29;20403;-77
2022/05/04 10:35:38;;;;;;;4.10;2.45;;;;;;;;;;4925777;29;20400;-78
2022/05/04 10:38:31;;;;;;;3.78;2.50;;;;;;;;;;4924269;29;20048;-77
2022/05/04 10:41:33;;;;;;;4.90;2.53;;;;;;;;;;4917566;29;20054;-78
2022/05/04 10:44:52;;;;;;;3.88;2.20;;;;;;;;;;4910312;29;20485;-77
2022/05/04 10:47:40;;;;;;;8.15;2.60;;;;;;;;;;4924567;29;20472;-78
2022/05/04 10:50:26;;;;;;;5.32;2.20;;;;;;;;;;4924800;29;20044;-77
2022/05/04 10:53:34;;;;;;;2.88;2.25;;;;;;;;;;4924251;29;20044;-77
2022/05/04 10:56:23;;;;;;;6.43;2.33;;;;;;;;;;4924356;29;20048;-78
2022/05/04 10:59:08;;;;;;;2.38;1.88;;;;;;;;;;4920473;29;20048;-76
2022/05/04 11:02:04;;;;;;;2.80;1.95;;;;;;;;;;4924273;29;20048;-77
2022/05/04 11:04:52;;;;;;;4.80;2.60;;;;;;;;;;4924727;29;20055;-78
2022/05/04 11:07:38;;;;;;;5.30;2.80;;;;;;;;;;4923817;29;20052;-78
2022/05/04 11:10:25;;;;;;;6.38;2.50;;;;;;;;;;4924456;29;20043;-80
2022/05/04 11:13:10;;;;;;;5.05;2.75;;;;;;;;;;4924109;29;20067;-78
2022/05/04 11:16:00;;;;;;;4.55;2.38;;;;;;;;;;4917896;29;20048;-77
2022/05/04 11:18:44;;;;;;;7.07;2.10;;;;;;;;;;4923887;29;20048;-79
2022/05/04 11:21:31;;;;;;;4.40;2.35;;;;;;;;;;4923555;29;20044;-78
2022/05/04 11:24:17;;;;;;;4.35;2.10;;;;;;;;;;4917508;29;20396;-78
2022/05/04 11:27:04;;;;;;;3.85;2.00;;;;;;;;;;4922374;29;20060;-77
2022/05/04 11:29:49;;;;;;;3.63;2.20;;;;;;;;;;4923210;29;20044;-77
2022/05/04 11:32:35;;;;;;;2.30;2.00;;;;;;;;;;4923252;29;20048;-78
2022/05/04 11:35:20;;;;;;;5.18;1.95;;;;;;;;;;4923222;29;20492;-77
2022/05/04 11:38:06;;;;;;;6.95;2.22;;;;;;;;;;4917176;29;20040;-76
2022/05/04 11:40:52;;;;;;;5.30;2.00;;;;;;;;;;4923216;29;20048;-77
2022/05/04 11:43:38;;;;;;;4.20;2.05;;;;;;;;;;4923863;29;20396;-77
2022/05/04 11:46:24;;;;;;;2.40;2.10;;;;;;;;;;4923945;29;20464;-77
2022/05/04 11:49:10;;;;;;;5.00;2.00;;;;;;;;;;4923256;29;20052;-76
2022/05/04 11:51:57;;;;;;;4.10;2.20;;;;;;;;;;4909307;29;20036;-78
2022/05/04 11:54:45;;;;;;;4.43;2.00;;;;;;;;;;4926972;29;20475;-76
2022/05/04 11:57:44;;;;;;;4.45;1.75;;;;;;;;;;4927601;29;20476;-77
2022/05/04 12:00:29;;;;;;;2.38;1.70;;;;;;;;;;4927783;29;20051;-78
2022/05/04 12:03:15;;;;;;;4.57;1.83;;;;;;;;;;4927314;29;20404;-78
2022/05/04 12:06:02;;;;;;;3.95;2.00;;;;;;;;;;4927569;29;20048;-77
2022/05/04 12:08:48;;;;;;;4.80;2.70;;;;;;;;;;4927653;29;20048;-78
2022/05/04 12:11:34;;;;;;;5.03;2.35;;;;;;;;;;4927252;29;20044;-77
2022/05/04 12:14:20;;;;;;;5.97;2.17;;;;;;;;;;4921287;29;20052;-78
2022/05/04 12:17:08;;;;;;;4.07;2.15;;;;;;;;;;4926655;29;20048;-77
2022/05/04 12:19:54;;;;;;;5.22;2.30;;;;;;;;;;4927365;29;20052;-77
2022/05/04 12:22:39;;;;;;;3.40;2.17;;;;;;;;;;4931228;29;20044;-78
2022/05/04 12:25:26;;;;;;;4.03;2.30;;;;;;;;;;4929342;29;20052;-77
2022/05/04 12:28:11;;;;;;;6.38;2.20;;;;;;;;;;4928602;29;20056;-78
2022/05/04 12:34:01;;;;;;;3.03;1.80;;;;;;;;;;4920972;29;20388;-77
2022/05/04 12:36:47;;;;;;;3.00;2.03;;;;;;;;;;4927449;29;20056;-77
2022/05/04 12:39:32;;;;;;;6.15;2.75;;;;;;;;;;4926695;29;20476;-77
2022/05/04 12:42:19;;;;;;;4.28;2.05;;;;;;;;;;4926796;29;20431;-78
2022/05/04 12:45:04;;;;;;;3.40;2.05;;;;;;;;;;4926047;29;20048;-78
2022/05/04 12:47:49;;;;;;;5.82;2.00;;;;;;;;;;4920181;29;20453;-78
2022/05/04 12:50:37;;;;;;;5.18;1.75;;;;;;;;;;4926731;29;20053;-79
2022/05/04 12:53:24;;;;;;;2.85;1.92;;;;;;;;;;4926583;29;20052;-76
2022/05/04 12:59:18;;;;;;;7.78;1.92;;;;;;;;;;4923178;29;20060;-76
2022/05/04 13:02:03;;;;;;;4.78;1.75;;;;;;;;;;4926167;29;20052;-77
2022/05/04 13:04:49;;;;;;;3.35;1.77;;;;;;;;;;4925519;29;20052;-79
2022/05/04 13:07:36;;;;;;;2.80;1.65;;;;;;;;;;4912471;29;20056;-77
2022/05/04 13:10:21;;;;;;;4.85;1.70;;;;;;;;;;4926080;29;20052;-77
2022/05/04 13:13:06;;;;;;;29.80;13.20;;;;;;;;;;4925874;29;20052;-76
2022/05/04 13:15:52;;;;;;;16.13;2.15;;;;;;;;;;4926097;29;20052;-77
2022/05/04 13:18:38;;;;;;;5.85;2.67;;;;;;;;;;4926347;29;20052;-77
2022/05/04 13:21:24;;;;;;;7.32;1.90;;;;;;;;;;4926520;29;20056;-78
2022/05/04 13:24:10;;;;;;;6.03;1.98;;;;;;;;;;4926019;29;20048;-78
2022/05/04 13:26:55;;;;;;;8.63;2.00;;;;;;;;;;4911594;29;20056;-79
2022/05/04 13:29:41;;;;;;;6.47;1.85;;;;;;;;;;4926245;29;20052;-78
2022/05/04 13:32:26;;;;;;;5.95;2.08;;;;;;;;;;4926454;29;20460;-78
2022/05/04 13:35:12;;;;;;;5.18;1.70;;;;;;;;;;4925442;29;20060;-76
2022/05/04 13:37:58;;;;;;;6.80;2.63;;;;;;;;;;4925950;29;20044;-78
2022/05/04 13:40:44;;;;;;;18.15;9.73;;;;;;;;;;4919380;29;20488;-76
2022/05/04 13:43:30;;;;;;;18.85;7.88;;;;;;;;;;4919352;29;20048;-78
2022/05/04 13:46:17;;;;;;;5.32;2.10;;;;;;;;;;4919569;29;20056;-77
2022/05/04 13:49:03;;;;;;;6.13;1.90;;;;;;;;;;4925581;29;20423;-76
2022/05/04 13:54:52;;;;;;;5.22;1.85;;;;;;;;;;4918370;29;20048;-77
2022/05/04 13:57:38;;;;;;;5.78;1.90;;;;;;;;;;4925341;29;20047;-77
2022/05/04 14:00:23;;;;;;;12.25;2.10;;;;;;;;;;4925152;29;20056;-77
2022/05/04 14:03:10;;;;;;;5.82;1.83;;;;;;;;;;4925251;29;20399;-78
2022/05/04 14:05:55;;;;;;;6.18;1.80;;;;;;;;;;4925679;29;20048;-78
2022/05/04 14:08:40;;;;;;;3.80;1.95;;;;;;;;;;4924665;29;20056;-78
2022/05/04 14:11:26;;;;;;;6.03;1.70;;;;;;;;;;4925002;29;20052;-78
2022/05/04 14:17:15;;;;;;;2.33;1.48;;;;;;;;;;4924562;29;20491;-77
2022/05/04 14:20:00;;;;;;;5.88;1.80;;;;;;;;;;4924834;29;20048;-77
2022/05/04 14:22:46;;;;;;;3.30;1.60;;;;;;;;;;4924693;29;20051;-77
2022/05/04 14:25:33;;;;;;;10.63;1.92;;;;;;;;;;4924870;29;20047;-77
2022/05/04 14:28:25;;;;;;;6.65;3.10;;;;;;;;;;4924830;29;20056;-77
2022/05/04 14:31:11;;;;;;;4.97;2.42;;;;;;;;;;4924204;29;20052;-78
2022/05/04 14:33:56;;;;;;;3.85;1.65;;;;;;;;;;4925133;29;20048;-78
2022/05/04 14:36:42;;;;;;;5.32;2.05;;;;;;;;;;4924287;29;20056;-78
2022/05/04 14:39:28;;;;;;;4.97;1.70;;;;;;;;;;4924943;29;20492;-78
2022/05/04 14:42:13;;;;;;;5.82;1.90;;;;;;;;;;4927083;29;20060;-77
2022/05/04 14:44:59;;;;;;;7.60;1.90;;;;;;;;;;4942870;29;20055;-77
2022/05/04 14:47:44;;;;;;;12.57;2.40;;;;;;;;;;4943441;29;20047;-78
2022/05/04 14:50:31;;;;;;;3.95;1.75;;;;;;;;;;4936494;29;20044;-76
2022/05/04 14:53:17;;;;;;;5.03;1.88;;;;;;;;;;4928939;29;20051;-77
2022/05/04 14:56:03;;;;;;;4.28;1.80;;;;;;;;;;4943147;29;20047;-77
2022/05/04 14:58:49;;;;;;;4.88;1.60;;;;;;;;;;4940270;29;20047;-78
2022/05/04 15:01:34;;;;;;;5.10;1.70;;;;;;;;;;4944817;29;20055;-80
2022/05/04 15:07:25;;;;;;;2.72;1.50;;;;;;;;;;4952965;29;20043;-79
2022/05/04 15:10:11;;;;;;;12.98;1.90;;;;;;;;;;4941668;29;20475;-78
2022/05/04 15:12:56;;;;;;;6.47;2.03;;;;;;;;;;4943661;29;20048;-80
2022/05/04 15:15:42;;;;;;;2.97;1.63;;;;;;;;;;4943006;29;20056;-80
2022/05/04 15:18:29;;;;;;;5.07;1.52;;;;;;;;;;4943043;29;20048;-78
2022/05/04 15:21:16;;;;;;;4.05;1.50;;;;;;;;;;4929055;29;20055;-77
2022/05/04 15:24:02;;;;;;;9.38;1.70;;;;;;;;;;4942758;29;20055;-79
2022/05/04 15:26:47;;;;;;;8.27;2.17;;;;;;;;;;4942370;29;20052;-77
2022/05/04 15:29:33;;;;;;;6.38;1.52;;;;;;;;;;4942472;29;20402;-77
2022/05/04 15:32:18;;;;;;;4.63;1.30;;;;;;;;;;4942759;29;20491;-77
2022/05/04 15:35:05;;;;;;;6.20;1.60;;;;;;;;;;4943230;29;20052;-79
2022/05/04 15:37:49;;;;;;;6.03;1.85;;;;;;;;;;4942839;29;20139;-77
2022/05/04 15:40:35;;;;;;;9.82;2.95;;;;;;;;;;4942648;29;20060;-78
2022/05/04 15:43:20;;;;;;;11.07;2.15;;;;;;;;;;4936447;29;20048;-77
2022/05/04 15:46:05;;;;;;;8.80;1.50;;;;;;;;;;4942423;29;20052;-79
2022/05/04 15:48:54;;;;;;;10.52;2.17;;;;;;;;;;4942567;29;20060;-77
2022/05/04 15:51:40;;;;;;;3.53;1.70;;;;;;;;;;4942597;29;20407;-77
2022/05/04 15:54:25;;;;;;;2.33;1.50;;;;;;;;;;4927781;29;20495;-77
2022/05/04 15:57:11;;;;;;;6.40;2.15;;;;;;;;;;4942321;29;20055;-78
2022/05/04 15:59:57;;;;;;;5.07;2.30;;;;;;;;;;4936505;29;20043;-78
2022/05/04 16:05:45;;;;;;;7.03;2.08;;;;;;;;;;4942555;29;20463;-77
2022/05/04 16:08:32;;;;;;;5.63;2.28;;;;;;;;;;4942403;29;20051;-77
2022/05/04 16:11:17;;;;;;;6.40;2.25;;;;;;;;;;4942305;29;20043;-78
2022/05/04 16:14:02;;;;;;;4.18;1.92;;;;;;;;;;4942485;29;20051;-77
2022/05/04 16:22:55;;;;;;;4.03;2.30;;;;;;;;;;4941780;29;20427;-77
2022/05/04 16:25:40;;;;;;;7.03;2.30;;;;;;;;;;4942384;29;20047;-78
2022/05/04 16:28:25;;;;;;;4.65;2.40;;;;;;;;;;4935767;29;20043;-79
2022/05/04 16:31:11;;;;;;;5.68;2.70;;;;;;;;;;4942498;29;20399;-77
2022/05/04 16:33:56;;;;;;;7.43;2.35;;;;;;;;;;4942729;29;20056;-76
2022/05/04 16:36:42;;;;;;;7.22;2.70;;;;;;;;;;4942063;29;20056;-76
2022/05/04 16:39:27;;;;;;;8.32;2.90;;;;;;;;;;4928565;29;20047;-76
2022/05/04 16:42:13;;;;;;;6.18;2.50;;;;;;;;;;4945365;29;20406;-76
2022/05/04 16:44:58;;;;;;;5.10;2.55;;;;;;;;;;4945834;29;20048;-76
2022/05/04 16:47:44;;;;;;;6.38;2.60;;;;;;;;;;4945550;29;20048;-75
2022/05/04 16:50:30;;;;;;;9.95;2.60;;;;;;;;;;4945231;29;20055;-77
2022/05/04 16:53:15;;;;;;;5.25;2.50;;;;;;;;;;4945343;29;20475;-77
2022/05/04 16:56:01;;;;;;;5.38;2.40;;;;;;;;;;4945165;29;20047;-77
2022/05/04 16:58:47;;;;;;;4.22;2.50;;;;;;;;;;4943170;29;20063;-76
2022/05/04 17:01:32;;;;;;;8.35;2.88;;;;;;;;;;4946143;29;20463;-76
2022/05/04 17:04:19;;;;;;;9.05;2.50;;;;;;;;;;4944858;29;20051;-76
2022/05/04 17:07:04;;;;;;;7.93;2.78;;;;;;;;;;4945282;29;20059;-76
2022/05/04 17:09:50;;;;;;;7.20;2.80;;;;;;;;;;4945366;29;20047;-77
2022/05/04 17:12:35;;;;;;;10.20;3.45;;;;;;;;;;4945007;29;20048;-76
2022/05/04 17:15:21;;;;;;;11.63;3.50;;;;;;;;;;4945527;29;20445;-77
2022/05/04 17:18:07;;;;;;;9.68;4.13;;;;;;;;;;4944970;29;20052;-76
2022/05/04 17:20:52;;;;;;;10.85;3.92;;;;;;;;;;4945636;29;20055;-77
2022/05/04 17:23:38;;;;;;;6.95;3.03;;;;;;;;;;4945118;29;20044;-77
2022/05/04 17:26:23;;;;;;;7.40;3.30;;;;;;;;;;4946756;29;20048;-76